Time;durP1;ratioP1;P1;durP2;ratioP2;P2;SDS_P1;SDS_P2;PMS_P1;PMS_P2;Temp;Humidity;BMP_temperature;BMP_pressure;BME280_temperature;BME280_humidity;BME280_pressure;Samples;Min_cycle;Max_cycle;Signal;HPM_P1;HPM_P2
2022/10/03 00:01:05;;;;;;;9.13;4.00;;;16.70;99.90;;;;;;6258092;23;20052;-93
2022/10/03 00:04:06;;;;;;;5.18;3.15;;;16.70;99.90;;;;;;6258927;23;20008;-92
2022/10/03 00:06:55;;;;;;;4.53;3.13;;;16.60;99.90;;;;;;6193675;23;20071;-93
2022/10/03 00:09:46;;;;;;;5.35;3.50;;;16.50;99.90;;;;;;6217009;23;20075;-92
2022/10/03 00:12:51;;;;;;;7.60;3.53;;;16.50;99.90;;;;;;6241960;23;20009;-93
2022/10/03 00:15:46;;;;;;;6.53;3.53;;;16.40;99.90;;;;;;6215485;23;20032;-91
2022/10/03 00:18:22;;;;;;;8.52;3.22;;;16.40;99.90;;;;;;6209188;23;20040;-92
2022/10/03 00:21:15;;;;;;;5.45;3.55;;;16.30;99.90;;;;;;6242176;23;20087;-94
2022/10/03 00:24:09;;;;;;;7.90;3.50;;;16.20;99.90;;;;;;6216850;23;20008;-92
2022/10/03 00:27:03;;;;;;;6.40;3.00;;;16.10;99.90;;;;;;6241874;23;20009;-91
2022/10/03 00:29:38;;;;;;;8.73;3.22;;;16.10;99.90;;;;;;6216642;23;20021;-93
2022/10/03 00:32:22;;;;;;;8.07;3.95;;;16.10;99.90;;;;;;6216498;23;20012;-93
2022/10/03 00:35:32;;;;;;;6.82;3.13;;;16.10;99.90;;;;;;6217249;23;20426;-92
2022/10/03 00:38:22;;;;;;;3.88;3.00;;;16.10;99.90;;;;;;6216897;23;20441;-93
2022/10/03 00:41:11;;;;;;;7.15;4.07;;;16.10;99.90;;;;;;6216038;23;20012;-92
2022/10/03 00:43:54;;;;;;;6.07;3.13;;;16.10;99.90;;;;;;6190829;23;20005;-93
2022/10/03 00:46:39;;;;;;;10.35;3.53;;;16.00;99.90;;;;;;6190870;23;20008;-92
2022/10/03 00:49:43;;;;;;;7.15;3.80;;;16.00;99.90;;;;;;6190454;23;20008;-93
2022/10/03 00:52:34;;;;;;;8.18;4.18;;;15.90;99.90;;;;;;6190602;23;20012;-92
2022/10/03 00:55:06;;;;;;;9.32;3.70;;;15.80;99.90;;;;;;6190587;23;20004;-92
2022/10/03 00:58:02;;;;;;;14.00;4.88;;;15.80;99.90;;;;;;6190334;23;20008;-93
2022/10/03 01:00:34;;;;;;;10.27;5.15;;;15.70;99.90;;;;;;6165784;23;20039;-92
2022/10/03 01:03:21;;;;;;;5.57;3.50;;;15.70;99.90;;;;;;6165791;23;20012;-93
2022/10/03 01:05:51;;;;;;;7.80;4.20;;;15.70;99.90;;;;;;6190204;23;20347;-92
2022/10/03 01:08:23;;;;;;;8.07;4.03;;;15.70;99.90;;;;;;6165610;23;20008;-92
2022/10/03 01:10:50;;;;;;;6.20;4.00;;;15.70;99.90;;;;;;6190841;23;20095;-93
2022/10/03 01:13:33;;;;;;;9.25;4.65;;;15.70;99.90;;;;;;6216151;23;20390;-92
2022/10/03 01:16:13;;;;;;;9.48;4.70;;;15.80;99.90;;;;;;6216240;23;20009;-93
2022/10/03 01:19:03;;;;;;;12.52;5.22;;;15.70;99.90;;;;;;6241534;23;20016;-92
2022/10/03 01:21:42;;;;;;;7.22;4.57;;;15.60;99.90;;;;;;6241547;23;20005;-94
2022/10/03 01:24:47;;;;;;;6.57;4.10;;;15.60;99.90;;;;;;6216303;23;20012;-93
2022/10/03 01:30:21;;;;;;;13.33;5.60;;;15.70;99.90;;;;;;6241623;23;20012;-92
2022/10/03 01:30:46;;;;;;;11.23;5.70;;;15.80;99.90;;;;;;6216263;23;20025;-93
2022/10/03 01:33:17;;;;;;;14.15;5.57;;;15.90;99.90;;;;;;6241356;23;20000;-94
2022/10/03 01:36:11;;;;;;;13.57;5.47;;;16.00;99.90;;;;;;6216095;23;20040;-92
2022/10/03 01:39:00;;;;;;;11.00;5.47;;;16.00;99.90;;;;;;6220259;23;20005;-92
2022/10/03 01:41:47;;;;;;;10.90;5.45;;;16.00;99.90;;;;;;6165725;23;20036;-94
2022/10/03 01:44:41;;;;;;;14.40;6.30;;;16.00;99.90;;;;;;6189737;23;20058;-93
2022/10/03 01:47:21;;;;;;;11.60;6.03;;;16.10;99.90;;;;;;6165514;23;20134;-92
2022/10/03 01:50:04;;;;;;;12.77;6.28;;;16.10;99.90;;;;;;6165688;23;20099;-93
2022/10/03 01:53:03;;;;;;;7.43;5.68;;;16.10;99.90;;;;;;6165385;23;20005;-92
2022/10/03 01:55:45;;;;;;;9.25;4.18;;;16.10;99.90;;;;;;6130906;23;20017;-92
2022/10/03 01:58:30;;;;;;;11.65;4.78;;;16.10;99.90;;;;;;6155115;23;20006;-91
2022/10/03 02:01:14;;;;;;;9.63;5.80;;;16.10;99.90;;;;;;6110219;23;20017;-94
2022/10/03 02:03:56;;;;;;;8.27;5.18;;;16.10;99.90;;;;;;6106397;23;20001;-92
2022/10/03 02:06:28;;;;;;;8.98;5.15;;;16.10;99.90;;;;;;6133994;23;20016;-92
2022/10/03 02:09:15;;;;;;;9.73;5.30;;;16.10;99.90;;;;;;6112756;23;20013;-93
2022/10/03 02:12:08;;;;;;;11.98;5.53;;;16.00;99.90;;;;;;6135714;23;20009;-93
2022/10/03 02:15:00;;;;;;;10.07;5.80;;;16.00;99.90;;;;;;6136621;23;20028;-93
2022/10/03 02:18:01;;;;;;;11.82;5.78;;;16.00;99.90;;;;;;6164106;23;20011;-92
2022/10/03 02:20:58;;;;;;;10.55;5.07;;;16.00;99.90;;;;;;6171799;23;20005;-93
2022/10/03 02:23:39;;;;;;;8.23;4.95;;;15.90;99.90;;;;;;6137458;23;20017;-92
2022/10/03 02:26:30;;;;;;;10.98;5.03;;;15.90;99.90;;;;;;6135789;23;20032;-94
2022/10/03 02:29:21;;;;;;;9.15;5.10;;;15.80;99.90;;;;;;6135637;23;20012;-91
2022/10/03 02:32:04;;;;;;;8.48;5.00;;;15.80;99.90;;;;;;6178881;23;20023;-93
2022/10/03 02:34:51;;;;;;;11.88;5.20;;;15.70;99.90;;;;;;6240724;23;20059;-93
2022/10/03 02:37:36;;;;;;;7.32;5.55;;;15.70;99.90;;;;;;6241796;23;20008;-93
2022/10/03 02:40:36;;;;;;;10.63;4.57;;;15.70;99.90;;;;;;6240684;23;20032;-92
2022/10/03 02:43:47;;;;;;;9.50;5.20;;;15.60;99.90;;;;;;6240851;23;20008;-91
2022/10/03 02:46:41;;;;;;;8.00;5.03;;;15.60;99.90;;;;;;6240998;23;20087;-91
2022/10/03 02:49:49;;;;;;;6.95;4.70;;;15.60;99.90;;;;;;6215466;23;20020;-93
2022/10/03 02:52:56;;;;;;;8.63;4.88;;;15.60;99.90;;;;;;6240885;23;20005;-94
2022/10/03 02:55:32;;;;;;;8.32;4.70;;;15.60;99.90;;;;;;6240739;23;20015;-93
2022/10/03 02:58:17;;;;;;;7.85;4.43;;;15.60;99.90;;;;;;6241018;23;20074;-93
2022/10/03 03:00:47;;;;;;;;;;;15.60;99.90;;;;;;6215933;23;20087;-95
2022/10/03 03:03:38;;;;;;;12.32;4.60;;;15.60;99.90;;;;;;6215470;23;19987;-92
2022/10/03 03:06:32;;;;;;;10.20;4.40;;;15.60;99.90;;;;;;6216551;23;20316;-92
2022/10/03 03:09:32;;;;;;;8.70;4.32;;;15.70;99.90;;;;;;6215675;23;20012;-92
2022/10/03 03:12:18;;;;;;;11.77;3.97;;;15.80;99.90;;;;;;6215466;23;20020;-93
2022/10/03 03:15:03;;;;;;;6.22;3.80;;;15.90;99.90;;;;;;6217704;23;20066;-93
2022/10/03 03:18:08;;;;;;;6.10;4.07;;;16.00;99.90;;;;;;6252184;23;20099;-93
2022/10/03 03:20:59;;;;;;;7.60;3.83;;;16.10;99.90;;;;;;6162138;23;20028;-94
2022/10/03 03:23:40;;;;;;;6.97;3.42;;;16.10;99.90;;;;;;6137293;23;20036;-92
2022/10/03 03:26:34;;;;;;;12.68;3.58;;;16.10;99.90;;;;;;6137294;23;20012;-93
2022/10/03 03:29:30;;;;;;;6.85;2.97;;;16.00;99.90;;;;;;6137098;23;20199;-93
2022/10/03 03:32:17;;;;;;;9.32;3.65;;;16.00;99.90;;;;;;6137504;23;20013;-92
2022/10/03 03:35:00;;;;;;;8.55;3.28;;;16.10;99.90;;;;;;6136850;23;20013;-92
2022/10/03 03:37:38;;;;;;;6.32;3.10;;;16.20;99.90;;;;;;6161751;23;20350;-92
2022/10/03 03:40:28;;;;;;;3.65;3.03;;;16.20;99.90;;;;;;6161789;23;20047;-93
2022/10/03 03:43:22;;;;;;;6.75;3.28;;;16.20;99.90;;;;;;6137392;23;20020;-92
2022/10/03 03:46:19;;;;;;;8.30;3.38;;;16.20;99.90;;;;;;6136810;23;20023;-92
2022/10/03 03:49:07;;;;;;;9.75;4.22;;;16.30;99.90;;;;;;6136755;23;20019;-92
2022/10/03 03:51:49;;;;;;;7.13;3.22;;;16.40;99.90;;;;;;6161711;23;20127;-92
2022/10/03 03:54:34;;;;;;;5.55;3.50;;;16.50;99.90;;;;;;6136813;23;20032;-93
2022/10/03 03:57:20;;;;;;;13.75;4.05;;;16.60;99.90;;;;;;6183639;23;20016;-93
2022/10/03 04:00:07;;;;;;;6.30;3.83;;;16.70;99.90;;;;;;6218107;23;20008;-92
2022/10/03 04:03:03;;;;;;;9.98;4.10;;;16.80;99.90;;;;;;6242704;23;20319;-92
2022/10/03 04:05:49;;;;;;;8.10;4.03;;;16.90;99.90;;;;;;6195416;23;20020;-93
2022/10/03 04:08:21;;;;;;;7.72;3.35;;;16.90;99.90;;;;;;6216692;23;20431;-92
2022/10/03 04:11:17;;;;;;;8.50;3.38;;;17.00;99.90;;;;;;6242299;23;20024;-92
2022/10/03 04:14:12;;;;;;;11.35;4.07;;;17.00;99.90;;;;;;6215934;23;20008;-92
2022/10/03 04:20:19;;;;;;;6.93;3.25;;;17.10;99.90;;;;;;6216632;23;20043;-93
2022/10/03 04:23:07;;;;;;;6.47;3.03;;;17.10;99.90;;;;;;6191493;23;20013;-92
2022/10/03 04:25:34;;;;;;;10.52;3.88;;;17.20;99.90;;;;;;6190639;23;20087;-92
2022/10/03 04:28:49;;;;;;;8.20;3.42;;;17.20;99.90;;;;;;6191206;23;20005;-94
2022/10/03 04:31:41;;;;;;;14.45;3.80;;;17.20;99.90;;;;;;6167819;23;20020;-92
2022/10/03 04:34:10;;;;;;;10.80;3.38;;;17.30;99.90;;;;;;6183696;23;20005;-92
2022/10/03 04:37:02;;;;;;;8.82;3.33;;;17.30;99.90;;;;;;6203723;23;20012;-93
2022/10/03 04:39:46;;;;;;;7.57;3.22;;;17.30;99.90;;;;;;6191550;23;20016;-91
2022/10/03 04:42:51;;;;;;;9.05;2.88;;;17.30;99.90;;;;;;6190823;23;20004;-91
2022/10/03 04:45:36;;;;;;;;;;;17.30;99.90;;;;;;6182398;23;20011;-93
2022/10/03 04:48:30;;;;;;;6.85;3.30;;;17.30;99.90;;;;;;6216374;23;19903;-91
2022/10/03 04:51:23;;;;;;;5.68;3.03;;;17.40;99.90;;;;;;6216322;23;20017;-92
2022/10/03 04:54:01;;;;;;;10.15;3.10;;;17.50;99.90;;;;;;6215775;23;20019;-93
2022/10/03 04:56:41;;;;;;;13.43;2.90;;;17.50;99.90;;;;;;6216609;23;20086;-91
2022/10/03 04:59:38;;;;;;;11.18;3.20;;;17.50;99.90;;;;;;6242015;23;20059;-92
2022/10/03 05:02:22;;;;;;;5.72;2.50;;;17.60;99.90;;;;;;6216470;23;20035;-94
2022/10/03 05:05:18;;;;;;;5.47;2.80;;;17.60;99.90;;;;;;6241601;23;20074;-91
2022/10/03 05:07:53;;;;;;;19.65;3.50;;;17.70;99.90;;;;;;6241803;23;20378;-90
2022/10/03 05:10:48;;;;;;;12.45;2.92;;;17.80;99.90;;;;;;6216545;23;20020;-92
2022/10/03 05:13:31;;;;;;;8.95;3.20;;;17.90;99.90;;;;;;6241922;23;20051;-93
2022/10/03 05:16:05;;;;;;;11.18;2.88;;;18.10;99.90;;;;;;6217138;23;20087;-92
2022/10/03 05:19:07;;;;;;;11.60;3.03;;;18.20;99.90;;;;;;6217121;23;20015;-92
2022/10/03 05:22:03;;;;;;;7.95;3.22;;;18.20;99.90;;;;;;6200577;23;20011;-94
2022/10/03 05:24:36;;;;;;;7.57;3.10;;;18.30;99.90;;;;;;6163718;23;20371;-91
2022/10/03 05:27:23;;;;;;;9.35;3.40;;;18.50;99.90;;;;;;6186714;23;20091;-94
2022/10/03 05:30:34;;;;;;;10.73;3.75;;;18.80;99.90;;;;;;6161755;23;20088;-95
2022/10/03 05:33:38;;;;;;;11.65;3.60;;;18.80;99.90;;;;;;6185966;23;20001;-93
2022/10/03 05:36:14;;;;;;;9.48;3.20;;;18.90;99.90;;;;;;6186406;23;20428;-92
2022/10/03 05:39:00;;;;;;;7.28;3.30;;;19.10;99.90;;;;;;6186069;23;20427;-94
2022/10/03 05:41:35;;;;;;;8.75;3.72;;;19.40;99.90;;;;;;6186198;23;20158;-92
2022/10/03 05:44:18;;;;;;;9.57;3.90;;;19.70;99.90;;;;;;6161449;23;20331;-94
2022/10/03 05:47:43;;;;;;;7.88;5.00;;;20.20;99.90;;;;;;6186265;23;20005;-94
2022/10/03 05:50:09;;;;;;;11.40;6.03;;;21.30;99.90;;;;;;6185792;23;20021;-92
2022/10/03 05:53:04;;;;;;;10.27;6.32;;;21.80;99.90;;;;;;6186351;23;20009;-93
2022/10/03 05:56:02;;;;;;;9.65;7.80;;;21.70;99.90;;;;;;6161132;23;20035;-93
2022/10/03 05:58:39;;;;;;;9.10;6.70;;;21.90;99.90;;;;;;6186242;23;20399;-92
2022/10/03 06:01:23;;;;;;;11.68;7.68;;;22.60;99.90;;;;;;6186470;23;20044;-92
2022/10/03 06:04:00;;;;;;;;;;;23.20;99.90;;;;;;6189751;23;20035;-92
2022/10/03 06:07:13;;;;;;;11.20;10.30;;;23.70;99.90;;;;;;6161310;23;19942;-91
2022/10/03 06:09:51;;;;;;;12.40;11.35;;;24.20;99.90;;;;;;6161009;23;20021;-93
2022/10/03 06:12:31;;;;;;;13.35;12.35;;;24.70;99.90;;;;;;6162630;23;20012;-93
2022/10/03 06:15:22;;;;;;;14.27;12.40;;;25.00;99.90;;;;;;6163251;23;20013;-90
2022/10/03 06:17:59;;;;;;;13.25;12.10;;;25.30;99.90;;;;;;6190343;23;20009;-89
2022/10/03 06:21:06;;;;;;;13.10;11.52;;;25.30;99.90;;;;;;6163231;23;20005;-93
2022/10/03 06:23:35;;;;;;;11.98;10.70;;;25.40;99.90;;;;;;6168390;23;20021;-87
2022/10/03 06:26:27;;;;;;;13.77;11.00;;;25.30;99.90;;;;;;6168490;23;20036;-91
2022/10/03 06:29:36;;;;;;;18.70;10.43;;;25.10;99.90;;;;;;6193458;23;20404;-91
2022/10/03 09:17:48;;;;;;;12.80;6.50;;;24.50;99.90;;;;;;6150714;22;20145;-92
2022/10/03 10:32:35;;;;;;;8.02;7.22;;;24.00;99.90;;;;;;6071348;23;20050;-94
2022/10/03 10:48:34;;;;;;;8.52;7.72;;;24.00;99.90;;;;;;6249723;22;20020;-94
2022/10/03 12:38:59;;;;;;;13.00;12.40;;;24.30;99.90;;;;;;6255430;22;20024;-93
2022/10/03 13:00:44;;;;;;;12.40;11.13;;;23.70;99.90;;;;;;6204993;22;20262;-91
2022/10/03 14:20:08;;;;;;;7.03;6.60;;;22.80;99.90;;;;;;6248899;22;20027;-92
2022/10/03 14:26:56;;;;;;;;;;;;;;;;;;;;;
2022/10/03 15:34:51;;;;;;;8.75;3.58;;;21.60;99.90;;;;;;6243613;22;20047;-91
2022/10/03 15:37:25;;;;;;;6.35;3.63;;;21.50;99.90;;;;;;6200893;23;20012;-92
2022/10/03 15:43:16;;;;;;;5.40;3.78;;;21.30;99.90;;;;;;6234859;22;20044;-92
2022/10/03 15:45:49;;;;;;;7.03;2.88;;;21.20;99.90;;;;;;6168286;23;20346;-91
2022/10/03 15:48:21;;;;;;;8.27;3.80;;;21.10;99.90;;;;;;6169092;23;20035;-92
2022/10/03 15:50:57;;;;;;;6.03;3.58;;;21.10;99.90;;;;;;6192652;23;20354;-93
2022/10/03 15:53:39;;;;;;;4.55;2.88;;;21.00;99.90;;;;;;6168802;23;20005;-93
2022/10/03 15:56:32;;;;;;;6.22;3.70;;;21.00;99.90;;;;;;6168917;23;20091;-93
2022/10/03 16:55:58;;;;;;;6.68;2.45;;;20.20;99.90;;;;;;6238665;22;20019;-92
2022/10/03 16:58:44;;;;;;;5.40;2.20;;;20.20;99.90;;;;;;6222969;23;20465;-92
2022/10/03 17:01:26;;;;;;;5.85;2.30;;;20.20;99.90;;;;;;6223071;23;20442;-93
